Terminal Aerodrome Forecast
Issued by NWS Twin Cities, MN

Home | Current Version | Previous Version | Graphics & Text | Print | Product List | Glossary On
Versions: 1 2 3 4 5 6 7 8 9 10 11 12 13 14 15 16 17 18 19 20 21 22 23 24 25 26
000
FTUS43 KMPX 242049 AAA
TAFMSP
TAF AMD
KMSP 242049Z 2421/2524 17016G26KT P6SM VCSH FEW060 BKN090 OVC250
     FM250100 16009KT P6SM BKN080
     FM251300 VRB03KT P6SM BKN030
     FM251600 34004KT P6SM BKN035
     FM251800 05005KT P6SM -RA BKN050
     FM252200 05007KT 2SM -RA OVC015=

USA.gov is the U.S. government's official web portal to all federal, state and local government web resources and services.